createdAt,value
2023-04-23T00:02:09.870Z,5.9
2023-04-23T00:05:11.878Z,5.6
2023-04-23T00:08:13.836Z,5.8
2023-04-23T00:11:15.744Z,8.3
2023-04-23T00:14:17.700Z,7.5
2023-04-23T00:17:19.760Z,8.9
2023-04-23T00:20:21.604Z,7.5
2023-04-23T00:23:23.606Z,8.4
2023-04-23T00:26:25.540Z,6.9
2023-04-23T00:29:27.493Z,9.3
2023-04-23T00:32:29.520Z,4.8
2023-04-23T00:35:31.446Z,8
2023-04-23T00:38:33.375Z,6.2
2023-04-23T00:41:35.357Z,6.7
2023-04-23T00:44:37.307Z,7.7
2023-04-23T00:47:39.296Z,7.4
2023-04-23T00:50:41.258Z,8.4
2023-04-23T00:53:43.171Z,7
2023-04-23T00:56:45.233Z,9.3
2023-04-23T00:59:47.113Z,7.1
2023-04-23T01:02:49.159Z,8.9
2023-04-23T01:05:51.035Z,7.9
2023-04-23T01:08:52.952Z,7.3
2023-04-23T01:11:54.932Z,8.9
2023-04-23T01:14:56.906Z,8.2
2023-04-23T01:17:58.866Z,9.3
2023-04-23T01:21:00.815Z,7
2023-04-23T01:24:02.793Z,8.5
2023-04-23T01:27:04.764Z,9.3
2023-04-23T01:30:06.707Z,9.7
2023-04-23T01:33:08.798Z,8.2
2023-04-23T01:36:10.641Z,11.1
2023-04-23T01:39:12.581Z,9.5
2023-04-23T01:42:14.744Z,11.7
2023-04-23T01:45:16.492Z,10.4
2023-04-23T01:48:18.462Z,11
2023-04-23T01:51:20.426Z,9.4
2023-04-23T01:54:22.415Z,11.7
2023-04-23T01:57:24.430Z,10.3
2023-04-23T02:00:26.300Z,10.8
2023-04-23T02:03:28.387Z,12.3
2023-04-23T02:06:30.211Z,13.3
2023-04-23T02:09:32.164Z,15.7
2023-04-23T02:12:34.119Z,12.1
2023-04-23T02:15:36.093Z,16
2023-04-23T02:18:38.112Z,14
2023-04-23T02:21:40.038Z,14.2
2023-04-23T02:24:42.265Z,13.7
2023-04-23T02:27:43.947Z,13.9
2023-04-23T02:30:45.962Z,14.9
2023-04-23T02:33:47.899Z,15.4
2023-04-23T02:36:49.833Z,14.3
2023-04-23T02:39:51.820Z,12.7
2023-04-23T02:42:53.749Z,12.4
2023-04-23T02:45:55.725Z,11.7
2023-04-23T02:48:57.680Z,12.2
2023-04-23T02:51:59.617Z,11.4
2023-04-23T02:55:01.597Z,13.6
2023-04-23T02:58:03.555Z,15.1
2023-04-23T03:01:05.541Z,15.5
2023-04-23T03:04:07.534Z,15.4
2023-04-23T03:07:09.408Z,16
2023-04-23T03:10:11.397Z,12.6
2023-04-23T03:13:13.383Z,13.5
2023-04-23T03:16:15.335Z,15.2
2023-04-23T03:19:17.296Z,13.6
2023-04-23T03:22:19.287Z,12.8
2023-04-23T03:25:21.257Z,14.5
2023-04-23T03:28:23.206Z,13.4
2023-04-23T03:31:25.171Z,13.9
2023-04-23T03:34:27.127Z,11.1
2023-04-23T03:37:29.049Z,11.4
2023-04-23T03:40:31.016Z,11.7
2023-04-23T03:43:33.007Z,10.2
2023-04-23T03:46:34.989Z,11.3
2023-04-23T03:49:36.899Z,10.7
2023-04-23T03:52:38.878Z,12.5
2023-04-23T03:55:40.824Z,10.3
2023-04-23T03:58:42.779Z,10.9
2023-04-23T04:01:44.843Z,12.5
2023-04-23T04:04:47.382Z,12.5
2023-04-23T04:07:48.615Z,11.4
2023-04-23T04:10:50.609Z,12.3
2023-04-23T04:13:52.607Z,10.4
2023-04-23T04:16:54.575Z,11.5
2023-04-23T04:19:56.531Z,10.5
2023-04-23T04:22:58.501Z,8.9
2023-04-23T04:26:00.433Z,11.5
2023-04-23T04:29:02.363Z,12.6
2023-04-23T04:32:04.462Z,11.7
2023-04-23T04:35:06.401Z,11.5
2023-04-23T04:38:08.370Z,11.8
2023-04-23T04:41:10.276Z,12.5
2023-04-23T04:44:12.234Z,10.9
2023-04-23T04:47:14.223Z,12.4
2023-04-23T04:50:16.165Z,10.3
2023-04-23T04:53:18.162Z,9.9
2023-04-23T04:56:20.082Z,11.3
2023-04-23T04:59:22.076Z,12
2023-04-23T05:02:24.115Z,9.8
2023-04-23T05:05:26.001Z,10.4
2023-04-23T05:08:27.927Z,12
2023-04-23T05:11:29.910Z,10.1
2023-04-23T05:14:31.832Z,10.9
2023-04-23T05:17:33.805Z,9.4
2023-04-23T05:20:35.749Z,11.8
2023-04-23T05:23:37.713Z,9.5
2023-04-23T05:26:39.670Z,9.5
2023-04-23T05:29:41.659Z,10.8
2023-04-23T05:32:43.694Z,13.1
2023-04-23T05:35:45.674Z,9.6
2023-04-23T05:38:47.614Z,9.5
2023-04-23T05:41:49.578Z,7.7
2023-04-23T05:44:51.578Z,7.9
2023-04-23T05:47:53.567Z,6.8
2023-04-23T05:50:55.495Z,8.5
2023-04-23T05:53:57.445Z,8.4
2023-04-23T05:56:59.448Z,8.1
2023-04-23T06:00:01.404Z,6.6
2023-04-23T06:03:03.552Z,7.1
2023-04-23T06:06:05.360Z,8
2023-04-23T06:09:07.336Z,6.5
2023-04-23T06:12:09.397Z,7.1
2023-04-23T06:15:11.293Z,6.6
2023-04-23T06:18:13.273Z,4.9
2023-04-23T06:21:15.202Z,6.9
2023-04-23T06:24:17.150Z,6.7
2023-04-23T06:27:19.109Z,7.9
2023-04-23T06:30:21.055Z,5.8
2023-04-23T06:33:23.185Z,6
2023-04-23T06:36:25.048Z,6.6
2023-04-23T06:39:26.990Z,6.2
2023-04-23T06:42:28.927Z,6.5
2023-04-23T06:45:30.852Z,5.4
2023-04-23T06:48:32.835Z,6.2
2023-04-23T06:51:34.769Z,6.7
2023-04-23T06:54:36.782Z,4.7
2023-04-23T06:57:38.702Z,6
2023-04-23T07:00:40.732Z,5.2
2023-04-23T07:03:44.910Z,4.7
2023-04-23T07:06:44.545Z,4.7
2023-04-23T07:09:46.691Z,5.2
2023-04-23T07:12:48.519Z,3.8
2023-04-23T07:15:50.433Z,4.8
2023-04-23T07:18:52.370Z,5.6
2023-04-23T07:21:54.358Z,4.4
2023-04-23T07:24:56.293Z,6.3
2023-04-23T07:27:58.295Z,5.5
2023-04-23T07:31:00.575Z,5.1
2023-04-23T07:34:02.165Z,4.8
2023-04-23T07:37:04.167Z,4.5
2023-04-23T07:40:06.099Z,6.3
2023-04-23T07:43:08.073Z,5.7
2023-04-23T07:46:10.073Z,5.6
2023-04-23T07:49:12.041Z,5.7
2023-04-23T07:52:13.993Z,5.2
2023-04-23T07:55:15.946Z,4.2
2023-04-23T07:58:17.882Z,7.7
2023-04-23T08:01:19.856Z,4.6
2023-04-23T08:04:22.088Z,4.7
2023-04-23T08:07:23.869Z,4.1
2023-04-23T08:10:25.835Z,4.9
2023-04-23T08:13:27.788Z,4.6
2023-04-23T08:16:30.855Z,6.1
2023-04-23T08:19:31.695Z,6.2
2023-04-23T08:22:33.647Z,6.3
2023-04-23T08:25:35.632Z,6.5
2023-04-23T08:28:37.565Z,6.4
2023-04-23T08:31:39.547Z,7.1
2023-04-23T08:34:41.608Z,6.9
2023-04-23T08:37:43.512Z,6.8
2023-04-23T08:40:45.472Z,7.9
2023-04-23T08:43:47.687Z,5.5
2023-04-23T08:46:49.663Z,6.4
2023-04-23T08:49:51.349Z,6.4
2023-04-23T08:52:53.291Z,5.1
2023-04-23T08:55:55.301Z,5.6
2023-04-23T08:58:57.363Z,4.8
2023-04-23T09:01:59.269Z,5.9
2023-04-23T09:05:01.183Z,3.7
2023-04-23T09:08:03.160Z,2.8
2023-04-23T09:11:05.362Z,3.5
2023-04-23T09:14:07.385Z,3
2023-04-23T09:17:09.321Z,3.4
2023-04-23T09:20:11.336Z,3.2
2023-04-23T09:23:13.344Z,3.9
2023-04-23T09:26:15.214Z,3.7
2023-04-23T09:29:17.164Z,3.1
2023-04-23T09:32:19.316Z,3.4
2023-04-23T09:35:21.131Z,3.7
2023-04-23T09:38:23.051Z,3.9
2023-04-23T09:41:25.025Z,3.2
2023-04-23T09:44:27.049Z,2.8
2023-04-23T09:47:29.015Z,2.7
2023-04-23T09:50:30.938Z,4.3
2023-04-23T09:53:32.901Z,2.8
2023-04-23T09:56:34.845Z,2.5
2023-04-23T09:59:46.590Z,2
2023-04-23T10:02:38.810Z,3
2023-04-23T10:05:56.078Z,2.3
2023-04-23T10:08:42.723Z,5
2023-04-23T10:11:44.720Z,2.2
2023-04-23T10:14:46.693Z,2.9
2023-04-23T10:17:48.683Z,2.4
2023-04-23T10:20:50.534Z,2.1
2023-04-23T10:23:52.543Z,2.9
2023-04-23T10:26:54.514Z,3.9
2023-04-23T10:29:56.442Z,2.7
2023-04-23T10:32:58.457Z,3.2
2023-04-23T10:36:00.459Z,1.6
2023-04-23T10:39:02.375Z,5.3
2023-04-23T10:42:04.294Z,3
2023-04-23T10:45:16.718Z,3.1
2023-04-23T10:48:08.232Z,2.4
2023-04-23T10:51:31.785Z,2.4
2023-04-23T10:54:12.162Z,3.4
2023-04-23T10:57:14.185Z,2.2
2023-04-23T11:00:16.105Z,2.1
2023-04-23T11:03:18.195Z,2.1
2023-04-23T11:06:20.059Z,1.8
2023-04-23T11:09:22.026Z,2.1
2023-04-23T11:12:23.963Z,3
2023-04-23T11:15:25.981Z,2.6
2023-04-23T11:18:27.944Z,2.3
2023-04-23T11:21:29.882Z,4
2023-04-23T11:24:31.897Z,3
2023-04-23T11:27:33.800Z,2.7
2023-04-23T11:30:35.784Z,2.6
2023-04-23T11:33:37.729Z,2.8
2023-04-23T11:36:39.735Z,2.8
2023-04-23T11:39:42.147Z,2.4
2023-04-23T11:42:43.671Z,3.5
2023-04-23T11:45:45.655Z,1.7
2023-04-23T11:48:47.573Z,1.9
2023-04-23T11:51:49.597Z,3.1
2023-04-23T11:54:51.563Z,2.2
2023-04-23T11:57:53.532Z,1.9
2023-04-23T12:00:55.729Z,2.4
2023-04-23T12:03:57.647Z,2.9
2023-04-23T12:06:59.452Z,2.2
2023-04-23T12:10:01.390Z,4.8
2023-04-23T12:13:03.327Z,2.6
2023-04-23T12:16:05.331Z,2.3
2023-04-23T12:19:07.269Z,3
2023-04-23T12:22:09.264Z,2.6
2023-04-23T12:25:11.205Z,2.7
2023-04-23T12:28:13.211Z,4
2023-04-23T12:31:15.143Z,2
2023-04-23T12:34:17.125Z,4.3
2023-04-23T12:37:19.082Z,2.9
2023-04-23T12:40:21.010Z,2.6
2023-04-23T12:43:22.995Z,2.8
2023-04-23T12:46:24.941Z,2.5
2023-04-23T12:49:27.024Z,2.5
2023-04-23T12:52:28.866Z,3.2
2023-04-23T12:55:30.860Z,3.2
2023-04-23T12:58:32.860Z,2.8
2023-04-23T13:01:34.833Z,2.7
2023-04-23T13:04:36.778Z,3.5
2023-04-23T13:07:38.703Z,2.7
2023-04-23T13:10:40.675Z,2.4
2023-04-23T13:13:43.208Z,4
2023-04-23T13:16:44.792Z,3.5
2023-04-23T13:19:46.568Z,2.4
2023-04-23T13:22:48.520Z,2.4
2023-04-23T13:25:50.493Z,2.5
2023-04-23T13:28:52.439Z,2.6
2023-04-23T13:31:54.428Z,2.1
2023-04-23T13:34:56.494Z,1.7
2023-04-23T13:37:58.380Z,2.1
2023-04-23T13:41:00.431Z,1.6
2023-04-23T13:44:02.380Z,1.3
2023-04-23T13:47:04.340Z,1.9
2023-04-23T13:50:06.249Z,1.9
2023-04-23T13:53:08.213Z,2
2023-04-23T13:56:10.177Z,1.9
2023-04-23T14:02:14.127Z,2.4
2023-04-23T14:05:16.076Z,1.5
2023-04-23T14:08:18.158Z,1
2023-04-23T14:11:19.989Z,1.7
2023-04-23T14:14:21.948Z,1.6
2023-04-23T14:17:23.931Z,2.3
2023-04-23T14:20:25.929Z,0.7
2023-04-23T14:23:27.857Z,1.8
2023-04-23T14:26:37.348Z,2.3
2023-04-23T14:29:31.805Z,2.1
2023-04-23T14:32:33.738Z,1.3
2023-04-23T14:35:42.349Z,0.9
2023-04-23T14:38:37.704Z,0.6
2023-04-23T14:41:39.689Z,1.6
2023-04-23T14:44:41.596Z,1.9
2023-04-23T14:47:43.583Z,3.2
2023-04-23T14:50:45.580Z,1.6
2023-04-23T14:53:47.514Z,2.2
2023-04-23T14:56:49.494Z,1.8
2023-04-23T14:59:51.486Z,1
2023-04-23T15:02:53.514Z,0.8
2023-04-23T15:05:55.428Z,0.7
2023-04-23T15:08:57.436Z,2
2023-04-23T15:11:59.349Z,0.7
2023-04-23T15:15:01.322Z,1
2023-04-23T15:18:03.368Z,1.9
2023-04-23T15:21:05.324Z,1.8
2023-04-23T15:24:07.340Z,1.7
2023-04-23T15:27:09.216Z,0.9
2023-04-23T15:30:11.200Z,1.6
2023-04-23T15:33:13.254Z,1.8
2023-04-23T15:36:15.167Z,2.4
2023-04-23T15:39:17.143Z,1.5
2023-04-23T15:42:19.081Z,3.1
2023-04-23T15:45:21.058Z,1.7
2023-04-23T15:48:23.093Z,1.4
2023-04-23T15:51:25.037Z,1.9
2023-04-23T15:54:27.582Z,2.7
2023-04-23T15:57:28.922Z,1.7
2023-04-23T16:00:30.942Z,2.4
2023-04-23T16:03:33.043Z,1.4
2023-04-23T16:06:34.825Z,0.8
2023-04-23T16:09:36.827Z,1.4
2023-04-23T16:12:38.779Z,1.5
2023-04-23T16:15:40.726Z,1.2
2023-04-23T16:18:42.763Z,1.2
2023-04-23T16:21:44.662Z,1
2023-04-23T16:24:46.624Z,1.4
2023-04-23T16:27:48.632Z,1.4
2023-04-23T16:30:50.575Z,0.9
2023-04-23T16:33:52.534Z,2
2023-04-23T16:36:54.489Z,1.1
2023-04-23T16:39:56.474Z,5.6
2023-04-23T16:42:58.446Z,2.3
2023-04-23T16:46:00.488Z,3.1
2023-04-23T16:49:02.356Z,2.7
2023-04-23T16:52:04.301Z,3.1
2023-04-23T16:55:06.231Z,2.9
2023-04-23T16:58:08.196Z,4.4
2023-04-23T17:01:10.164Z,2.4
2023-04-23T17:04:12.232Z,3.9
2023-04-23T17:07:14.074Z,3.8
2023-04-23T17:10:16.065Z,4.2
2023-04-23T17:13:18.219Z,3.5
2023-04-23T17:16:20.026Z,2
2023-04-23T17:19:21.949Z,1.9
2023-04-23T17:22:23.913Z,3
2023-04-23T17:25:25.846Z,1.5
2023-04-23T17:28:27.818Z,2.5
2023-04-23T17:31:29.840Z,2.4
2023-04-23T17:34:31.784Z,3.2
2023-04-23T17:37:34.268Z,2.3
2023-04-23T17:40:37.318Z,2.5
2023-04-23T17:43:37.677Z,2.5
2023-04-23T17:46:39.613Z,2
2023-04-23T17:49:41.818Z,2.5
2023-04-23T17:52:43.551Z,3.1
2023-04-23T17:55:45.507Z,3.1
2023-04-23T17:58:47.464Z,3.8
2023-04-23T18:01:49.433Z,3.6
2023-04-23T18:04:51.420Z,5.7
2023-04-23T18:07:53.361Z,3.6
2023-04-23T18:10:55.357Z,3.1
2023-04-23T18:13:57.292Z,2.9
2023-04-23T18:16:59.299Z,2.8
2023-04-23T18:20:01.202Z,2.2
2023-04-23T18:23:03.200Z,3.4
2023-04-23T18:26:05.172Z,2.1
2023-04-23T18:29:07.123Z,2.1
2023-04-23T18:32:09.284Z,2.6
2023-04-23T18:35:11.009Z,3
2023-04-23T18:38:12.958Z,1.9
2023-04-23T18:41:14.949Z,3
2023-04-23T18:44:16.927Z,1.4
2023-04-23T18:47:18.917Z,3
2023-04-23T18:50:20.816Z,2.8
2023-04-23T18:53:22.796Z,1.8
2023-04-23T18:56:24.758Z,2.3
2023-04-23T18:59:26.698Z,2.9
2023-04-23T19:02:35.440Z,2
2023-04-23T19:05:31.984Z,1.9
2023-04-23T19:08:32.644Z,1.5
2023-04-23T19:11:34.598Z,2.2
2023-04-23T19:14:36.509Z,4.9
2023-04-23T19:17:38.536Z,1.7
2023-04-23T19:20:40.425Z,2
2023-04-23T19:23:42.388Z,3.5
2023-04-23T19:26:44.355Z,1.8
2023-04-23T19:29:46.342Z,2.9
2023-04-23T19:32:48.487Z,1.9
2023-04-23T19:35:50.258Z,2.2
2023-04-23T19:38:52.211Z,2.5
2023-04-23T19:41:56.495Z,3.1
2023-04-23T19:44:56.099Z,3.3
2023-04-23T19:47:58.115Z,2
2023-04-23T19:51:00.131Z,2
2023-04-23T19:54:01.989Z,2.6
2023-04-23T19:57:03.963Z,3.9
2023-04-23T20:00:05.899Z,3.3
2023-04-23T20:03:08.031Z,3.3
2023-04-23T20:06:09.826Z,3.5
2023-04-23T20:09:11.870Z,2.3
2023-04-23T20:12:13.886Z,2.9
2023-04-23T20:15:15.780Z,2
2023-04-23T20:18:17.735Z,3.5
2023-04-23T20:21:19.704Z,3.4
2023-04-23T20:24:21.674Z,3.7
2023-04-23T20:27:23.653Z,2.9
2023-04-23T20:30:25.608Z,2.6
2023-04-23T20:33:27.617Z,3.1
2023-04-23T20:36:29.556Z,3.7
2023-04-23T20:39:31.519Z,3.1
2023-04-23T20:42:33.473Z,3.8
2023-04-23T20:45:35.441Z,3.6
2023-04-23T20:48:37.422Z,2.8
2023-04-23T20:51:39.323Z,3.1
2023-04-23T20:54:41.287Z,2.6
2023-04-23T20:57:43.290Z,2.7
2023-04-23T21:00:45.218Z,3.1
2023-04-23T21:03:47.333Z,3.5
2023-04-23T21:06:49.118Z,4.7
2023-04-23T21:09:51.132Z,3.3
2023-04-23T21:12:53.047Z,2.6
2023-04-23T21:15:55.027Z,2.8
2023-04-23T21:18:56.964Z,2
2023-04-23T21:21:58.939Z,2.4
2023-04-23T21:25:00.858Z,2.5
2023-04-23T21:28:02.841Z,3.5
2023-04-23T21:31:04.847Z,2.5
2023-04-23T21:34:06.821Z,2.4
2023-04-23T21:37:08.790Z,2.7
2023-04-23T21:40:10.842Z,2.7
2023-04-23T21:43:12.669Z,1.6
2023-04-23T21:46:14.644Z,1.5
2023-04-23T21:49:16.616Z,3.2
2023-04-23T21:52:18.706Z,1.9
2023-04-23T21:55:20.541Z,2.8
2023-04-23T21:58:22.494Z,2.2
2023-04-23T22:01:24.460Z,2.3
2023-04-23T22:04:26.487Z,3.8
2023-04-23T22:07:28.356Z,2.4
2023-04-23T22:10:30.348Z,1.3
2023-04-23T22:13:32.342Z,1.3
2023-04-23T22:16:34.316Z,1.3
2023-04-23T22:19:36.244Z,1.9
2023-04-23T22:22:38.207Z,1.8
2023-04-23T22:25:40.150Z,3.2
2023-04-23T22:28:42.126Z,1.9
2023-04-23T22:31:44.118Z,3
2023-04-23T22:34:46.076Z,1.1
2023-04-23T22:37:48.033Z,1.4
2023-04-23T22:40:49.969Z,2.5
2023-04-23T22:43:51.927Z,1.8
2023-04-23T22:46:53.877Z,1.7
2023-04-23T22:49:55.843Z,0.8
2023-04-23T22:52:57.801Z,1.1
2023-04-23T22:55:59.798Z,1.6
2023-04-23T22:59:01.767Z,2.1
2023-04-23T23:02:03.693Z,2
2023-04-23T23:05:05.642Z,1.1
2023-04-23T23:08:07.608Z,1.5
2023-04-23T23:11:09.555Z,5
2023-04-23T23:14:11.574Z,3.2
2023-04-23T23:17:13.515Z,2.3
2023-04-23T23:20:15.457Z,1.4
2023-04-23T23:23:17.433Z,1.4
2023-04-23T23:26:19.377Z,1.6
2023-04-23T23:29:21.334Z,1.4
2023-04-23T23:32:23.330Z,1.8
2023-04-23T23:35:25.257Z,1.6
2023-04-23T23:38:27.272Z,4
2023-04-23T23:41:29.248Z,1
2023-04-23T23:44:31.220Z,1.4
2023-04-23T23:47:33.173Z,1.5
2023-04-23T23:50:35.099Z,1.7
2023-04-23T23:53:37.072Z,1.1
2023-04-23T23:56:39.055Z,1.8
2023-04-23T23:59:41.322Z,4.9
